DLH29P LEPA-EDDF
Flight info
| Callsign | DLH29P |
|---|---|
| Flight time | 1h 44m |
| Altitude | 32000 |
| Route | MEROS DCT LAPIT DCT CHELY DCT LUMAS DCT MAXIR DCT LUSOL DCT BODRU DCT OKTET DCT IRMAR/N0461F360 DCT KINES DCT VANAS DCT MOBLO DCT UBIMA DCT SOSAL DCT KORED DCT BERSU N871 DITON/N0463F350 DCT LADOL/N0463F360 T163 EMPAX EMPAX5B |
| Aircraft | A320/M-SDE3FGHIRWY/LB1 |
Departure
| Time | 2026-05-07 07:36 |
|---|---|
| Airport | Palma de Mallorca Airport (LEPA) |
Arrival
| Time | 2026-05-07 09:20 |
|---|---|
| Airport | Frankfurt Main Airport (EDDF) |
| Time | Latitude | Longitude | Altitude | Speed | Heading |
|---|---|---|---|---|---|
| 2026-05-07 07:02 | 39.55041 | 2.73542 | 36 ft | 0 kts | 164° |
| 2026-05-07 07:24 | 39.55057 | 2.73536 | 36 ft | 4 kts | 154° |
| 2026-05-07 07:25 | 39.55079 | 2.73495 | 33 ft | 0 kts | 58° |
| 2026-05-07 07:25 | 39.55079 | 2.73494 | 33 ft | 0 kts | 58° |
| 2026-05-07 07:29 | 39.55080 | 2.73497 | 32 ft | 3 kts | 58° |
| 2026-05-07 07:29 | 39.55095 | 2.73528 | 36 ft | 4 kts | 58° |
| 2026-05-07 07:29 | 39.55121 | 2.73580 | 36 ft | 9 kts | 57° |
| 2026-05-07 07:30 | 39.55158 | 2.73653 | 36 ft | 10 kts | 57° |
| 2026-05-07 07:30 | 39.55171 | 2.73735 | 36 ft | 10 kts | 114° |
| 2026-05-07 07:30 | 39.55109 | 2.73795 | 36 ft | 13 kts | 148° |
| 2026-05-07 07:30 | 39.55030 | 2.73858 | 36 ft | 14 kts | 148° |
| 2026-05-07 07:31 | 39.54948 | 2.73923 | 35 ft | 13 kts | 149° |
| 2026-05-07 07:31 | 39.54865 | 2.73983 | 33 ft | 13 kts | 158° |
| 2026-05-07 07:31 | 39.54798 | 2.73967 | 35 ft | 8 kts | 216° |
| 2026-05-07 07:31 | 39.54750 | 2.73968 | 36 ft | 6 kts | 161° |
| 2026-05-07 07:32 | 39.54699 | 2.73941 | 35 ft | 13 kts | 235° |
| 2026-05-07 07:32 | 39.54653 | 2.73843 | 36 ft | 15 kts | 239° |
| 2026-05-07 07:32 | 39.54593 | 2.73708 | 36 ft | 17 kts | 239° |
| 2026-05-07 07:32 | 39.54533 | 2.73583 | 36 ft | 15 kts | 238° |
| 2026-05-07 07:33 | 39.54480 | 2.73473 | 35 ft | 14 kts | 238° |
| 2026-05-07 07:33 | 39.54423 | 2.73350 | 36 ft | 19 kts | 239° |
| 2026-05-07 07:33 | 39.54359 | 2.73213 | 36 ft | 17 kts | 238° |
| 2026-05-07 07:33 | 39.54300 | 2.73093 | 36 ft | 15 kts | 237° |
| 2026-05-07 07:34 | 39.54226 | 2.73024 | 36 ft | 13 kts | 171° |
| 2026-05-07 07:34 | 39.54178 | 2.73110 | 36 ft | 13 kts | 107° |
| 2026-05-07 07:34 | 39.54170 | 2.73229 | 36 ft | 14 kts | 83° |
| 2026-05-07 07:34 | 39.54198 | 2.73327 | 34 ft | 0 kts | 59° |
| 2026-05-07 07:35 | 39.54269 | 2.73475 | 33 ft | 53 kts | 58° |
| 2026-05-07 07:35 | 39.54580 | 2.74129 | 37 ft | 114 kts | 58° |
| 2026-05-07 07:35 | 39.55085 | 2.75196 | 35 ft | 161 kts | 59° |
| 2026-05-07 07:36 | 39.55676 | 2.76472 | 620 ft | 163 kts | 60° |
| 2026-05-07 07:36 | 39.56086 | 2.77376 | 1142 ft | 162 kts | 60° |
| 2026-05-07 07:36 | 39.56686 | 2.78695 | 1540 ft | 181 kts | 60° |
| 2026-05-07 07:36 | 39.57353 | 2.80170 | 1890 ft | 198 kts | 60° |
| 2026-05-07 07:37 | 39.58065 | 2.81735 | 2439 ft | 205 kts | 60° |
| 2026-05-07 07:37 | 39.58796 | 2.83329 | 3218 ft | 204 kts | 60° |
| 2026-05-07 07:37 | 39.59531 | 2.84930 | 3903 ft | 210 kts | 60° |
| 2026-05-07 07:37 | 39.60282 | 2.86568 | 4615 ft | 213 kts | 61° |
| 2026-05-07 07:38 | 39.61041 | 2.88224 | 5335 ft | 214 kts | 61° |
| 2026-05-07 07:38 | 39.61804 | 2.89892 | 6069 ft | 216 kts | 60° |
| 2026-05-07 07:38 | 39.62580 | 2.91603 | 6603 ft | 228 kts | 61° |
| 2026-05-07 07:38 | 39.63396 | 2.93492 | 6918 ft | 251 kts | 62° |
| 2026-05-07 07:39 | 39.64265 | 2.95552 | 7353 ft | 269 kts | 62° |
| 2026-05-07 07:39 | 39.65183 | 2.97716 | 8036 ft | 276 kts | 62° |
| 2026-05-07 07:39 | 39.66133 | 2.99914 | 8758 ft | 282 kts | 62° |
| 2026-05-07 07:39 | 39.67111 | 3.02152 | 9512 ft | 288 kts | 62° |
| 2026-05-07 07:40 | 39.68108 | 3.04437 | 10197 ft | 295 kts | 61° |
| 2026-05-07 07:40 | 39.69156 | 3.06847 | 10448 ft | 318 kts | 62° |
| 2026-05-07 07:40 | 39.70277 | 3.09440 | 10643 ft | 341 kts | 62° |
| 2026-05-07 07:40 | 39.71476 | 3.12221 | 10783 ft | 364 kts | 62° |
| 2026-05-07 07:41 | 39.72749 | 3.15176 | 10910 ft | 385 kts | 62° |
| 2026-05-07 07:41 | 39.74084 | 3.18274 | 11220 ft | 398 kts | 62° |
| 2026-05-07 07:41 | 39.75448 | 3.21440 | 11726 ft | 405 kts | 61° |
| 2026-05-07 07:41 | 39.76831 | 3.24644 | 12297 ft | 409 kts | 60° |
| 2026-05-07 07:42 | 39.78480 | 3.27683 | 12813 ft | 414 kts | 49° |
| 2026-05-07 07:42 | 39.80381 | 3.30526 | 13373 ft | 419 kts | 49° |
| 2026-05-07 07:42 | 39.82304 | 3.33396 | 13887 ft | 423 kts | 49° |
| 2026-05-07 07:42 | 39.84246 | 3.36301 | 14370 ft | 427 kts | 49° |
| 2026-05-07 07:43 | 39.86198 | 3.39229 | 14868 ft | 430 kts | 49° |
| 2026-05-07 07:43 | 39.88164 | 3.42184 | 15363 ft | 433 kts | 49° |
| 2026-05-07 07:43 | 39.90139 | 3.45155 | 15846 ft | 436 kts | 49° |
| 2026-05-07 07:43 | 39.92129 | 3.48152 | 16320 ft | 439 kts | 49° |
| 2026-05-07 07:44 | 39.94131 | 3.51169 | 16788 ft | 442 kts | 49° |
| 2026-05-07 07:44 | 39.96119 | 3.54168 | 17254 ft | 445 kts | 49° |
| 2026-05-07 07:44 | 39.98139 | 3.57229 | 17719 ft | 447 kts | 49° |
| 2026-05-07 07:44 | 40.00170 | 3.60311 | 18212 ft | 449 kts | 49° |
| 2026-05-07 07:45 | 40.02216 | 3.63410 | 18621 ft | 452 kts | 49° |
| 2026-05-07 07:45 | 40.04275 | 3.66530 | 18981 ft | 455 kts | 49° |
| 2026-05-07 07:45 | 40.06351 | 3.69676 | 19325 ft | 459 kts | 49° |
| 2026-05-07 07:45 | 40.08444 | 3.72854 | 19656 ft | 463 kts | 49° |
| 2026-05-07 07:46 | 40.10549 | 3.76049 | 19979 ft | 466 kts | 49° |
| 2026-05-07 07:46 | 40.12675 | 3.79280 | 20297 ft | 470 kts | 49° |
| 2026-05-07 07:46 | 40.14809 | 3.82525 | 20614 ft | 473 kts | 49° |
| 2026-05-07 07:46 | 40.16958 | 3.85801 | 20927 ft | 476 kts | 49° |
| 2026-05-07 07:47 | 40.19124 | 3.89109 | 21229 ft | 480 kts | 49° |
| 2026-05-07 07:47 | 40.21303 | 3.92440 | 21507 ft | 484 kts | 49° |
| 2026-05-07 07:47 | 40.23490 | 3.95793 | 21804 ft | 487 kts | 49° |
| 2026-05-07 07:47 | 40.25700 | 3.99184 | 22108 ft | 491 kts | 48° |
| 2026-05-07 07:48 | 40.27923 | 4.02596 | 22392 ft | 494 kts | 48° |
| 2026-05-07 07:48 | 40.30157 | 4.06022 | 22669 ft | 497 kts | 48° |
| 2026-05-07 07:48 | 40.32411 | 4.09483 | 22952 ft | 500 kts | 48° |
| 2026-05-07 07:48 | 40.34674 | 4.12961 | 23209 ft | 503 kts | 48° |
| 2026-05-07 07:49 | 40.36922 | 4.16423 | 23452 ft | 506 kts | 48° |
| 2026-05-07 07:49 | 40.39207 | 4.19948 | 23693 ft | 509 kts | 48° |
| 2026-05-07 07:49 | 40.41501 | 4.23497 | 23950 ft | 511 kts | 48° |
| 2026-05-07 07:49 | 40.43802 | 4.27060 | 24160 ft | 514 kts | 48° |
| 2026-05-07 07:50 | 40.46234 | 4.30505 | 24376 ft | 514 kts | 40° |
| 2026-05-07 07:50 | 40.49009 | 4.33445 | 24630 ft | 512 kts | 31° |
| 2026-05-07 07:50 | 40.52057 | 4.35818 | 24964 ft | 507 kts | 22° |
| 2026-05-07 07:50 | 40.55290 | 4.37594 | 25299 ft | 501 kts | 14° |
| 2026-05-07 07:51 | 40.58638 | 4.38737 | 25631 ft | 495 kts | 5° |
| 2026-05-07 07:51 | 40.62030 | 4.39546 | 25964 ft | 495 kts | 5° |
| 2026-05-07 07:51 | 40.65413 | 4.40347 | 26313 ft | 494 kts | 5° |
| 2026-05-07 07:51 | 40.68797 | 4.41150 | 26668 ft | 494 kts | 5° |
| 2026-05-07 07:52 | 40.72175 | 4.41957 | 27017 ft | 493 kts | 5° |
| 2026-05-07 07:52 | 40.75548 | 4.42769 | 27373 ft | 493 kts | 5° |
| 2026-05-07 07:52 | 40.78921 | 4.43581 | 27732 ft | 492 kts | 5° |
| 2026-05-07 07:52 | 40.82293 | 4.44393 | 28104 ft | 492 kts | 5° |
| 2026-05-07 07:53 | 40.85655 | 4.45206 | 28516 ft | 490 kts | 5° |
| 2026-05-07 07:53 | 40.89007 | 4.46019 | 28927 ft | 489 kts | 5° |
| 2026-05-07 07:53 | 40.92347 | 4.46829 | 29311 ft | 488 kts | 5° |
| 2026-05-07 07:53 | 40.95690 | 4.47636 | 29680 ft | 488 kts | 5° |
| 2026-05-07 07:54 | 40.99033 | 4.48442 | 30044 ft | 487 kts | 5° |
| 2026-05-07 07:54 | 41.02360 | 4.49245 | 30366 ft | 487 kts | 5° |
| 2026-05-07 07:54 | 41.05692 | 4.50056 | 30710 ft | 486 kts | 5° |
| 2026-05-07 07:54 | 41.09004 | 4.50865 | 31095 ft | 483 kts | 5° |
| 2026-05-07 07:55 | 41.12311 | 4.51675 | 31440 ft | 482 kts | 5° |
| 2026-05-07 07:55 | 41.15558 | 4.52469 | 31747 ft | 481 kts | 5° |
| 2026-05-07 07:55 | 41.18857 | 4.53273 | 32043 ft | 481 kts | 5° |
| 2026-05-07 07:55 | 41.22139 | 4.54071 | 32347 ft | 480 kts | 5° |
| 2026-05-07 07:56 | 41.25433 | 4.54873 | 32643 ft | 480 kts | 5° |
| 2026-05-07 07:56 | 41.28715 | 4.55673 | 32985 ft | 479 kts | 5° |
| 2026-05-07 07:56 | 41.31989 | 4.56474 | 33313 ft | 478 kts | 5° |
| 2026-05-07 07:56 | 41.35258 | 4.57277 | 33622 ft | 478 kts | 5° |
| 2026-05-07 07:57 | 41.38529 | 4.58080 | 33908 ft | 477 kts | 5° |
| 2026-05-07 07:57 | 41.41790 | 4.58881 | 34179 ft | 477 kts | 5° |
| 2026-05-07 07:57 | 41.45049 | 4.59683 | 34431 ft | 477 kts | 5° |
| 2026-05-07 07:57 | 41.48312 | 4.60486 | 34703 ft | 476 kts | 5° |
| 2026-05-07 07:58 | 41.51570 | 4.61289 | 34967 ft | 476 kts | 5° |
| 2026-05-07 07:58 | 41.54822 | 4.62090 | 35206 ft | 475 kts | 5° |
| 2026-05-07 07:58 | 41.58070 | 4.62891 | 35427 ft | 475 kts | 5° |
| 2026-05-07 07:58 | 41.61323 | 4.63694 | 35638 ft | 475 kts | 5° |
| 2026-05-07 07:59 | 41.64577 | 4.64502 | 35842 ft | 475 kts | 5° |
| 2026-05-07 07:59 | 41.67828 | 4.65311 | 35986 ft | 476 kts | 5° |
| 2026-05-07 07:59 | 41.71092 | 4.66230 | 36028 ft | 484 kts | 11° |
| 2026-05-07 08:00 | 41.77303 | 4.69845 | 36028 ft | 497 kts | 27° |
| 2026-05-07 08:00 | 41.83238 | 4.74639 | 36022 ft | 498 kts | 27° |
| 2026-05-07 08:01 | 41.89185 | 4.79422 | 36043 ft | 498 kts | 27° |
| 2026-05-07 08:01 | 41.95132 | 4.84201 | 36027 ft | 498 kts | 27° |
| 2026-05-07 08:02 | 42.01075 | 4.88990 | 36023 ft | 498 kts | 27° |
| 2026-05-07 08:02 | 42.07009 | 4.93804 | 36031 ft | 498 kts | 27° |
| 2026-05-07 08:03 | 42.12940 | 4.98623 | 36039 ft | 498 kts | 26° |
| 2026-05-07 08:03 | 42.18875 | 5.03448 | 36038 ft | 498 kts | 27° |
| 2026-05-07 08:04 | 42.23799 | 5.07465 | 36038 ft | 498 kts | 27° |
| 2026-05-07 08:04 | 42.30679 | 5.13099 | 36050 ft | 498 kts | 27° |
| 2026-05-07 08:05 | 42.35637 | 5.17162 | 36042 ft | 497 kts | 26° |
| 2026-05-07 08:05 | 42.41552 | 5.22009 | 36037 ft | 497 kts | 26° |
| 2026-05-07 08:06 | 42.47465 | 5.26869 | 36034 ft | 497 kts | 27° |
| 2026-05-07 08:06 | 42.53370 | 5.31734 | 36051 ft | 497 kts | 26° |
| 2026-05-07 08:07 | 42.59226 | 5.36575 | 36030 ft | 496 kts | 26° |
| 2026-05-07 08:07 | 42.65115 | 5.41454 | 36026 ft | 496 kts | 26° |
| 2026-05-07 08:08 | 42.71005 | 5.46345 | 36024 ft | 496 kts | 26° |
| 2026-05-07 08:08 | 42.76896 | 5.51245 | 36020 ft | 496 kts | 26° |
| 2026-05-07 08:09 | 42.82782 | 5.56146 | 36019 ft | 496 kts | 26° |
| 2026-05-07 08:09 | 42.88669 | 5.61068 | 36046 ft | 496 kts | 27° |
| 2026-05-07 08:10 | 42.94546 | 5.66000 | 36036 ft | 496 kts | 26° |
| 2026-05-07 08:10 | 43.00424 | 5.70930 | 36026 ft | 496 kts | 26° |
| 2026-05-07 08:11 | 43.06302 | 5.75876 | 36012 ft | 496 kts | 26° |
| 2026-05-07 08:11 | 43.12173 | 5.80829 | 36028 ft | 496 kts | 26° |
| 2026-05-07 08:12 | 43.18040 | 5.85793 | 36020 ft | 496 kts | 26° |
| 2026-05-07 08:12 | 43.23903 | 5.90759 | 36015 ft | 495 kts | 26° |
| 2026-05-07 08:13 | 43.29770 | 5.95728 | 36033 ft | 495 kts | 27° |
| 2026-05-07 08:13 | 43.35645 | 6.00666 | 36021 ft | 493 kts | 23° |
| 2026-05-07 08:14 | 43.41937 | 6.03952 | 36016 ft | 478 kts | 6° |
| 2026-05-07 08:14 | 43.48450 | 6.04948 | 36029 ft | 469 kts | 358° |
| 2026-05-07 08:15 | 43.54965 | 6.05594 | 36017 ft | 470 kts | 358° |
| 2026-05-07 08:15 | 43.61449 | 6.06257 | 36010 ft | 470 kts | 358° |
| 2026-05-07 08:16 | 43.67964 | 6.06920 | 36036 ft | 470 kts | 358° |
| 2026-05-07 08:16 | 43.74481 | 6.07666 | 36018 ft | 473 kts | 3° |
| 2026-05-07 08:17 | 43.80847 | 6.10361 | 36000 ft | 487 kts | 21° |
| 2026-05-07 08:17 | 43.86940 | 6.14512 | 36021 ft | 488 kts | 21° |
| 2026-05-07 08:18 | 43.93030 | 6.18662 | 36014 ft | 488 kts | 21° |
| 2026-05-07 08:18 | 43.99116 | 6.22828 | 36011 ft | 488 kts | 21° |
| 2026-05-07 08:19 | 44.05203 | 6.27001 | 36004 ft | 487 kts | 21° |
| 2026-05-07 08:19 | 44.11282 | 6.31169 | 36017 ft | 487 kts | 21° |
| 2026-05-07 08:20 | 44.17344 | 6.35348 | 36010 ft | 486 kts | 21° |
| 2026-05-07 08:20 | 44.23402 | 6.39537 | 36004 ft | 486 kts | 21° |
| 2026-05-07 08:21 | 44.29458 | 6.43718 | 36017 ft | 486 kts | 21° |
| 2026-05-07 08:21 | 44.35507 | 6.47907 | 36005 ft | 485 kts | 21° |
| 2026-05-07 08:22 | 44.41556 | 6.52112 | 35992 ft | 486 kts | 21° |
| 2026-05-07 08:22 | 44.47604 | 6.56330 | 36018 ft | 485 kts | 22° |
| 2026-05-07 08:23 | 44.53657 | 6.60551 | 36015 ft | 486 kts | 22° |
| 2026-05-07 08:23 | 44.59673 | 6.64748 | 36016 ft | 486 kts | 22° |
| 2026-05-07 08:24 | 44.65756 | 6.68902 | 36011 ft | 485 kts | 19° |
| 2026-05-07 08:24 | 44.71966 | 6.72593 | 36010 ft | 484 kts | 17° |
| 2026-05-07 08:25 | 44.78214 | 6.76101 | 35996 ft | 484 kts | 17° |
| 2026-05-07 08:25 | 44.84445 | 6.79722 | 36014 ft | 484 kts | 18° |
| 2026-05-07 08:26 | 44.93734 | 6.85321 | 36020 ft | 484 kts | 19° |
| 2026-05-07 08:26 | 44.99927 | 6.89051 | 36036 ft | 483 kts | 18° |
| 2026-05-07 08:27 | 45.06122 | 6.92751 | 36021 ft | 483 kts | 19° |
| 2026-05-07 08:27 | 45.12317 | 6.96467 | 36018 ft | 483 kts | 19° |
| 2026-05-07 08:28 | 45.18505 | 7.00190 | 36036 ft | 483 kts | 19° |
| 2026-05-07 08:28 | 45.24647 | 7.03896 | 36034 ft | 483 kts | 19° |
| 2026-05-07 08:29 | 45.30825 | 7.07636 | 36032 ft | 482 kts | 19° |
| 2026-05-07 08:29 | 45.36994 | 7.11379 | 36055 ft | 482 kts | 19° |
| 2026-05-07 08:30 | 45.43165 | 7.15136 | 36049 ft | 482 kts | 19° |
| 2026-05-07 08:30 | 45.49329 | 7.18894 | 36032 ft | 482 kts | 19° |
| 2026-05-07 08:31 | 45.55490 | 7.22660 | 36048 ft | 482 kts | 19° |
| 2026-05-07 08:31 | 45.61655 | 7.26430 | 36038 ft | 482 kts | 19° |
| 2026-05-07 08:32 | 45.67811 | 7.30208 | 36035 ft | 481 kts | 19° |
| 2026-05-07 08:32 | 45.73965 | 7.33987 | 36065 ft | 481 kts | 20° |
| 2026-05-07 08:33 | 45.80120 | 7.37790 | 36055 ft | 482 kts | 20° |
| 2026-05-07 08:33 | 45.86271 | 7.41589 | 36050 ft | 481 kts | 20° |
| 2026-05-07 08:34 | 45.92422 | 7.45402 | 36044 ft | 481 kts | 20° |
| 2026-05-07 08:34 | 45.98568 | 7.49222 | 36058 ft | 481 kts | 20° |
| 2026-05-07 08:35 | 46.04668 | 7.53026 | 36049 ft | 481 kts | 20° |
| 2026-05-07 08:35 | 46.10806 | 7.56862 | 36054 ft | 481 kts | 20° |
| 2026-05-07 08:36 | 46.16945 | 7.60699 | 36057 ft | 480 kts | 20° |
| 2026-05-07 08:36 | 46.23079 | 7.64553 | 36057 ft | 481 kts | 21° |
| 2026-05-07 08:37 | 46.29211 | 7.68415 | 36054 ft | 481 kts | 20° |
| 2026-05-07 08:37 | 46.35341 | 7.72271 | 36060 ft | 480 kts | 21° |
| 2026-05-07 08:38 | 46.41461 | 7.76132 | 36050 ft | 480 kts | 21° |
| 2026-05-07 08:38 | 46.47578 | 7.80015 | 36048 ft | 480 kts | 21° |
| 2026-05-07 08:39 | 46.53700 | 7.83904 | 36048 ft | 480 kts | 21° |
| 2026-05-07 08:39 | 46.59814 | 7.87793 | 36042 ft | 479 kts | 21° |
| 2026-05-07 08:40 | 46.65922 | 7.91689 | 36044 ft | 479 kts | 21° |
| 2026-05-07 08:40 | 46.71983 | 7.95567 | 36050 ft | 479 kts | 21° |
| 2026-05-07 08:41 | 46.78089 | 7.99482 | 36051 ft | 479 kts | 21° |
| 2026-05-07 08:41 | 46.84146 | 8.03375 | 36046 ft | 479 kts | 21° |
| 2026-05-07 08:42 | 46.90253 | 8.07322 | 36077 ft | 479 kts | 21° |
| 2026-05-07 08:42 | 46.96344 | 8.11267 | 36076 ft | 479 kts | 22° |
| 2026-05-07 08:43 | 47.02430 | 8.15213 | 36075 ft | 478 kts | 21° |
| 2026-05-07 08:43 | 47.08520 | 8.19162 | 36075 ft | 478 kts | 21° |
| 2026-05-07 08:44 | 47.14604 | 8.23116 | 36053 ft | 478 kts | 22° |
| 2026-05-07 08:44 | 47.20684 | 8.27076 | 36054 ft | 478 kts | 22° |
| 2026-05-07 08:45 | 47.26753 | 8.31058 | 36053 ft | 478 kts | 22° |
| 2026-05-07 08:45 | 47.32821 | 8.35076 | 36056 ft | 478 kts | 23° |
| 2026-05-07 08:46 | 47.38836 | 8.39304 | 36058 ft | 479 kts | 24° |
| 2026-05-07 08:46 | 47.44827 | 8.43626 | 36064 ft | 479 kts | 24° |
| 2026-05-07 08:47 | 47.50830 | 8.47918 | 36077 ft | 479 kts | 24° |
| 2026-05-07 08:47 | 47.56841 | 8.52185 | 36076 ft | 479 kts | 24° |
| 2026-05-07 08:48 | 47.62810 | 8.56439 | 36073 ft | 479 kts | 24° |
| 2026-05-07 08:48 | 47.68816 | 8.60731 | 36066 ft | 479 kts | 24° |
| 2026-05-07 08:49 | 47.74819 | 8.65030 | 36066 ft | 479 kts | 24° |
| 2026-05-07 08:49 | 47.80820 | 8.69340 | 36056 ft | 479 kts | 24° |
| 2026-05-07 08:50 | 47.86814 | 8.73666 | 36046 ft | 479 kts | 24° |
| 2026-05-07 08:50 | 47.92806 | 8.77997 | 36050 ft | 479 kts | 24° |
| 2026-05-07 08:51 | 47.98806 | 8.82338 | 36052 ft | 478 kts | 24° |
| 2026-05-07 08:51 | 48.01797 | 8.84506 | 35896 ft | 480 kts | 24° |
| 2026-05-07 08:51 | 48.04791 | 8.86676 | 35488 ft | 477 kts | 24° |
| 2026-05-07 08:52 | 48.07772 | 8.88843 | 35028 ft | 476 kts | 24° |
| 2026-05-07 08:52 | 48.10737 | 8.91005 | 34571 ft | 474 kts | 25° |
| 2026-05-07 08:52 | 48.13699 | 8.93151 | 34101 ft | 472 kts | 22° |
| 2026-05-07 08:52 | 48.16592 | 8.94758 | 33603 ft | 469 kts | 14° |
| 2026-05-07 08:53 | 48.19525 | 8.95733 | 33095 ft | 465 kts | 6° |
| 2026-05-07 08:53 | 48.22728 | 8.96245 | 32553 ft | 463 kts | 4° |
| 2026-05-07 08:53 | 48.25915 | 8.96715 | 32028 ft | 460 kts | 4° |
| 2026-05-07 08:53 | 48.29080 | 8.97193 | 31505 ft | 457 kts | 5° |
| 2026-05-07 08:54 | 48.30730 | 8.97446 | 31249 ft | 456 kts | 5° |
| 2026-05-07 08:54 | 48.33881 | 8.97934 | 30746 ft | 453 kts | 5° |
| 2026-05-07 08:54 | 48.37008 | 8.98418 | 30252 ft | 451 kts | 5° |
| 2026-05-07 08:54 | 48.40112 | 8.98893 | 29692 ft | 444 kts | 5° |
| 2026-05-07 08:55 | 48.43163 | 8.99358 | 29113 ft | 436 kts | 5° |
| 2026-05-07 08:55 | 48.46157 | 8.99814 | 28548 ft | 429 kts | 5° |
| 2026-05-07 08:55 | 48.49104 | 9.00264 | 27988 ft | 422 kts | 5° |
| 2026-05-07 08:55 | 48.51997 | 9.00706 | 27442 ft | 415 kts | 5° |
| 2026-05-07 08:56 | 48.54857 | 9.01145 | 26909 ft | 410 kts | 5° |
| 2026-05-07 08:56 | 48.57673 | 9.01579 | 26387 ft | 404 kts | 5° |
| 2026-05-07 08:56 | 48.60459 | 9.02010 | 25872 ft | 399 kts | 5° |
| 2026-05-07 08:56 | 48.63205 | 9.02439 | 25366 ft | 394 kts | 5° |
| 2026-05-07 08:57 | 48.65907 | 9.02965 | 24870 ft | 390 kts | 7° |
| 2026-05-07 08:57 | 48.68575 | 9.03587 | 24409 ft | 385 kts | 8° |
| 2026-05-07 08:57 | 48.71200 | 9.04252 | 23932 ft | 381 kts | 8° |
| 2026-05-07 08:57 | 48.73799 | 9.04924 | 23437 ft | 377 kts | 8° |
| 2026-05-07 08:58 | 48.76369 | 9.05581 | 22880 ft | 373 kts | 7° |
| 2026-05-07 08:58 | 48.78921 | 9.06215 | 22329 ft | 370 kts | 7° |
| 2026-05-07 08:58 | 48.81463 | 9.06831 | 21793 ft | 368 kts | 7° |
| 2026-05-07 08:58 | 48.83982 | 9.07431 | 21263 ft | 365 kts | 7° |
| 2026-05-07 08:59 | 48.86487 | 9.08022 | 20746 ft | 363 kts | 7° |
| 2026-05-07 08:59 | 48.88981 | 9.08593 | 20235 ft | 361 kts | 6° |
| 2026-05-07 08:59 | 48.91469 | 9.09039 | 19731 ft | 360 kts | 4° |
| 2026-05-07 08:59 | 48.93960 | 9.09392 | 19245 ft | 358 kts | 3° |
| 2026-05-07 09:00 | 48.96443 | 9.09704 | 18761 ft | 358 kts | 3° |
| 2026-05-07 09:00 | 48.98922 | 9.10009 | 18278 ft | 357 kts | 3° |
| 2026-05-07 09:00 | 49.01391 | 9.10323 | 17730 ft | 356 kts | 3° |
| 2026-05-07 09:00 | 49.03851 | 9.10650 | 17192 ft | 355 kts | 3° |
| 2026-05-07 09:01 | 49.06306 | 9.10991 | 16734 ft | 352 kts | 4° |
| 2026-05-07 09:01 | 49.08701 | 9.11332 | 16395 ft | 347 kts | 3° |
| 2026-05-07 09:01 | 49.11063 | 9.11671 | 16254 ft | 337 kts | 3° |
| 2026-05-07 09:01 | 49.13468 | 9.12018 | 16115 ft | 354 kts | 4° |
| 2026-05-07 09:02 | 49.15937 | 9.12374 | 15988 ft | 355 kts | 3° |
| 2026-05-07 09:02 | 49.18399 | 9.12732 | 16013 ft | 356 kts | 4° |
| 2026-05-07 09:02 | 49.20869 | 9.13087 | 16007 ft | 356 kts | 4° |
| 2026-05-07 09:02 | 49.23331 | 9.13440 | 16015 ft | 356 kts | 4° |
| 2026-05-07 09:03 | 49.25800 | 9.13795 | 16008 ft | 356 kts | 4° |
| 2026-05-07 09:03 | 49.28260 | 9.14189 | 16008 ft | 356 kts | 7° |
| 2026-05-07 09:03 | 49.30697 | 9.14954 | 15668 ft | 357 kts | 11° |
| 2026-05-07 09:03 | 49.33113 | 9.15803 | 15190 ft | 355 kts | 11° |
| 2026-05-07 09:04 | 49.35522 | 9.16661 | 14711 ft | 353 kts | 12° |
| 2026-05-07 09:04 | 49.37906 | 9.17511 | 14250 ft | 351 kts | 12° |
| 2026-05-07 09:04 | 49.40280 | 9.18361 | 13788 ft | 349 kts | 12° |
| 2026-05-07 09:04 | 49.42639 | 9.19209 | 13285 ft | 347 kts | 12° |
| 2026-05-07 09:05 | 49.44949 | 9.20037 | 12783 ft | 344 kts | 11° |
| 2026-05-07 09:05 | 49.47271 | 9.20867 | 12281 ft | 342 kts | 11° |
| 2026-05-07 09:05 | 49.49579 | 9.21690 | 11795 ft | 339 kts | 11° |
| 2026-05-07 09:05 | 49.51869 | 9.22505 | 11311 ft | 337 kts | 11° |
| 2026-05-07 09:06 | 49.54134 | 9.23309 | 11016 ft | 329 kts | 11° |
| 2026-05-07 09:06 | 49.56328 | 9.24087 | 10812 ft | 319 kts | 10° |
| 2026-05-07 09:06 | 49.58475 | 9.24852 | 10476 ft | 315 kts | 10° |
| 2026-05-07 09:06 | 49.60600 | 9.25612 | 10116 ft | 312 kts | 10° |
| 2026-05-07 09:07 | 49.62686 | 9.26310 | 9989 ft | 300 kts | 3° |
| 2026-05-07 09:07 | 49.64688 | 9.26129 | 10006 ft | 283 kts | 346° |
| 2026-05-07 09:07 | 49.66611 | 9.25512 | 10007 ft | 281 kts | 344° |
| 2026-05-07 09:07 | 49.68520 | 9.24856 | 10008 ft | 281 kts | 344° |
| 2026-05-07 09:08 | 49.70424 | 9.24194 | 10004 ft | 281 kts | 344° |
| 2026-05-07 09:08 | 49.72331 | 9.23530 | 9880 ft | 280 kts | 344° |
| 2026-05-07 09:08 | 49.74221 | 9.22877 | 9531 ft | 278 kts | 344° |
| 2026-05-07 09:08 | 49.76098 | 9.22223 | 9158 ft | 276 kts | 344° |
| 2026-05-07 09:09 | 49.77960 | 9.21564 | 8791 ft | 273 kts | 344° |
| 2026-05-07 09:09 | 49.79808 | 9.20897 | 8417 ft | 272 kts | 344° |
| 2026-05-07 09:09 | 49.81640 | 9.20226 | 8051 ft | 270 kts | 344° |
| 2026-05-07 09:09 | 49.83462 | 9.19548 | 7696 ft | 268 kts | 344° |
| 2026-05-07 09:10 | 49.85263 | 9.18850 | 7319 ft | 266 kts | 344° |
| 2026-05-07 09:10 | 49.87053 | 9.18136 | 6963 ft | 265 kts | 344° |
| 2026-05-07 09:10 | 49.88831 | 9.17418 | 6599 ft | 263 kts | 344° |
| 2026-05-07 09:10 | 49.90594 | 9.16696 | 6230 ft | 261 kts | 344° |
| 2026-05-07 09:11 | 49.92347 | 9.15972 | 5839 ft | 260 kts | 344° |
| 2026-05-07 09:11 | 49.94094 | 9.15251 | 5444 ft | 259 kts | 344° |
| 2026-05-07 09:11 | 49.95829 | 9.14525 | 5092 ft | 258 kts | 344° |
| 2026-05-07 09:11 | 49.97468 | 9.13478 | 4700 ft | 254 kts | 324° |
| 2026-05-07 09:12 | 49.98857 | 9.11793 | 4255 ft | 254 kts | 320° |
| 2026-05-07 09:12 | 50.00186 | 9.09997 | 3992 ft | 253 kts | 319° |
| 2026-05-07 09:12 | 50.01510 | 9.08182 | 3989 ft | 254 kts | 319° |
| 2026-05-07 09:12 | 50.02835 | 9.06362 | 3991 ft | 255 kts | 319° |
| 2026-05-07 09:13 | 50.04161 | 9.04537 | 3990 ft | 254 kts | 319° |
| 2026-05-07 09:13 | 50.05483 | 9.02717 | 3992 ft | 254 kts | 319° |
| 2026-05-07 09:13 | 50.06809 | 9.00891 | 3994 ft | 254 kts | 319° |
| 2026-05-07 09:13 | 50.08093 | 8.99114 | 3991 ft | 239 kts | 319° |
| 2026-05-07 09:14 | 50.09136 | 8.97220 | 3990 ft | 227 kts | 296° |
| 2026-05-07 09:14 | 50.09610 | 8.94907 | 3994 ft | 220 kts | 285° |
| 2026-05-07 09:14 | 50.09922 | 8.92643 | 3992 ft | 208 kts | 284° |
| 2026-05-07 09:14 | 50.10200 | 8.90494 | 4014 ft | 197 kts | 284° |
| 2026-05-07 09:15 | 50.10466 | 8.88413 | 4009 ft | 195 kts | 284° |
| 2026-05-07 09:15 | 50.10512 | 8.86304 | 3993 ft | 199 kts | 262° |
| 2026-05-07 09:15 | 50.10074 | 8.84235 | 3839 ft | 201 kts | 252° |
| 2026-05-07 09:15 | 50.09595 | 8.82246 | 3608 ft | 193 kts | 253° |
| 2026-05-07 09:16 | 50.09144 | 8.80350 | 3354 ft | 180 kts | 253° |
| 2026-05-07 09:16 | 50.08732 | 8.78611 | 3133 ft | 167 kts | 253° |
| 2026-05-07 09:16 | 50.08352 | 8.77002 | 2912 ft | 152 kts | 252° |
| 2026-05-07 09:16 | 50.07997 | 8.75496 | 2709 ft | 146 kts | 253° |
| 2026-05-07 09:17 | 50.07651 | 8.74031 | 2504 ft | 143 kts | 253° |
| 2026-05-07 09:17 | 50.07308 | 8.72581 | 2320 ft | 143 kts | 253° |
| 2026-05-07 09:17 | 50.06968 | 8.71143 | 2123 ft | 140 kts | 253° |
| 2026-05-07 09:17 | 50.06631 | 8.69718 | 1928 ft | 140 kts | 253° |
| 2026-05-07 09:18 | 50.06295 | 8.68299 | 1736 ft | 140 kts | 253° |
| 2026-05-07 09:18 | 50.05958 | 8.66882 | 1543 ft | 139 kts | 253° |
| 2026-05-07 09:18 | 50.05624 | 8.65473 | 1347 ft | 138 kts | 252° |
| 2026-05-07 09:18 | 50.05293 | 8.64080 | 1156 ft | 136 kts | 252° |
| 2026-05-07 09:19 | 50.04964 | 8.62696 | 965 ft | 135 kts | 252° |
| 2026-05-07 09:19 | 50.04639 | 8.61331 | 778 ft | 134 kts | 253° |
| 2026-05-07 09:19 | 50.04318 | 8.59980 | 631 ft | 133 kts | 252° |
| 2026-05-07 09:19 | 50.03994 | 8.58635 | 411 ft | 132 kts | 252° |
| 2026-05-07 09:20 | 50.03695 | 8.57351 | 356 ft | 110 kts | 250° |
| 2026-05-07 09:20 | 50.03487 | 8.56489 | 355 ft | 60 kts | 250° |
| 2026-05-07 09:20 | 50.03362 | 8.55949 | 352 ft | 45 kts | 250° |
| 2026-05-07 09:20 | 50.03311 | 8.55578 | 343 ft | 26 kts | 270° |
| 2026-05-07 09:21 | 50.03330 | 8.55355 | 345 ft | 12 kts | 280° |
| 2026-05-07 09:21 | 50.03345 | 8.55214 | 342 ft | 14 kts | 279° |
| 2026-05-07 09:21 | 50.03362 | 8.55050 | 342 ft | 16 kts | 278° |
| 2026-05-07 09:21 | 50.03350 | 8.54875 | 339 ft | 18 kts | 249° |
| 2026-05-07 09:22 | 50.03303 | 8.54683 | 335 ft | 20 kts | 250° |
| 2026-05-07 09:22 | 50.03291 | 8.54509 | 335 ft | 16 kts | 307° |
| 2026-05-07 09:22 | 50.03392 | 8.54437 | 338 ft | 16 kts | 340° |
| 2026-05-07 09:22 | 50.03493 | 8.54377 | 351 ft | 15 kts | 340° |
| 2026-05-07 09:23 | 50.03590 | 8.54322 | 341 ft | 13 kts | 340° |
| 2026-05-07 09:23 | 50.03653 | 8.54331 | 349 ft | 6 kts | 42° |
| 2026-05-07 09:23 | 50.03667 | 8.54354 | 351 ft | 8 kts | 41° |
| 2026-05-07 09:23 | 50.03749 | 8.54363 | 347 ft | 13 kts | 343° |
| 2026-05-07 09:24 | 50.03833 | 8.54342 | 346 ft | 12 kts | 20° |
| 2026-05-07 09:24 | 50.03879 | 8.54435 | 350 ft | 10 kts | 66° |
| 2026-05-07 09:24 | 50.03912 | 8.54573 | 354 ft | 23 kts | 69° |
| 2026-05-07 09:24 | 50.03949 | 8.54719 | 354 ft | 13 kts | 69° |
| 2026-05-07 09:25 | 50.03984 | 8.54877 | 357 ft | 14 kts | 78° |
| 2026-05-07 09:25 | 50.03936 | 8.54985 | 358 ft | 13 kts | 155° |
| 2026-05-07 09:25 | 50.03858 | 8.55051 | 356 ft | 12 kts | 128° |
| 2026-05-07 09:25 | 50.03862 | 8.55174 | 349 ft | 11 kts | 74° |
| 2026-05-07 09:26 | 50.03893 | 8.55306 | 351 ft | 13 kts | 69° |
| 2026-05-07 09:26 | 50.03926 | 8.55435 | 357 ft | 15 kts | 69° |
| 2026-05-07 09:26 | 50.03966 | 8.55604 | 351 ft | 13 kts | 70° |
| 2026-05-07 09:26 | 50.03995 | 8.55727 | 354 ft | 15 kts | 69° |
| 2026-05-07 09:27 | 50.04029 | 8.55871 | 357 ft | 12 kts | 70° |
| 2026-05-07 09:27 | 50.04059 | 8.55995 | 353 ft | 12 kts | 69° |
| 2026-05-07 09:27 | 50.04109 | 8.56197 | 357 ft | 8 kts | 70° |
| 2026-05-07 09:28 | 50.04130 | 8.56264 | 358 ft | 6 kts | 43° |
| 2026-05-07 09:28 | 50.04159 | 8.56278 | 353 ft | 4 kts | 3° |
| 2026-05-07 09:28 | 50.04224 | 8.56248 | 361 ft | 14 kts | 342° |
| 2026-05-07 09:28 | 50.04295 | 8.56235 | 355 ft | 8 kts | 26° |
| 2026-05-07 09:29 | 50.04317 | 8.56279 | 357 ft | 0 kts | 62° |
| 2026-05-07 09:29 | 50.04330 | 8.56322 | 359 ft | 13 kts | 66° |
| 2026-05-07 09:29 | 50.04358 | 8.56439 | 362 ft | 11 kts | 70° |
| 2026-05-07 09:29 | 50.04388 | 8.56563 | 361 ft | 16 kts | 70° |
| 2026-05-07 09:30 | 50.04421 | 8.56704 | 360 ft | 12 kts | 70° |
| 2026-05-07 09:30 | 50.04450 | 8.56816 | 361 ft | 10 kts | 62° |
| 2026-05-07 09:30 | 50.04498 | 8.56870 | 359 ft | 7 kts | 11° |
| 2026-05-07 09:30 | 50.04524 | 8.56832 | 359 ft | 5 kts | 278° |
| 2026-05-07 09:31 | 50.04531 | 8.56785 | 363 ft | 6 kts | 289° |
| 2026-05-07 09:31 | 50.04542 | 8.56750 | 360 ft | 3 kts | 295° |
| 2026-05-07 09:31 | 50.04547 | 8.56733 | 362 ft | 0 kts | 295° |